createdAt,value
2022-12-08T00:00:00.566Z,16.58
2022-12-08T00:02:27.015Z,17.20
2022-12-08T00:05:12.217Z,17.15
2022-12-08T00:07:57.644Z,14.90
2022-12-08T00:10:48.534Z,16.20
2022-12-08T00:13:10.646Z,18.02
2022-12-08T00:15:37.058Z,16.48
2022-12-08T00:18:03.433Z,16.00
2022-12-08T00:20:29.882Z,14.88
2022-12-08T00:22:56.681Z,17.25
2022-12-08T00:25:23.091Z,15.38
2022-12-08T00:27:49.499Z,17.30
2022-12-08T00:30:15.964Z,16.98
2022-12-08T00:32:42.355Z,17.95
2022-12-08T00:35:08.971Z,16.08
2022-12-08T00:37:35.619Z,16.13
2022-12-08T00:40:02.515Z,15.15
2022-12-08T00:42:29.157Z,17.45
2022-12-08T00:44:55.609Z,16.85
2022-12-08T00:47:24.804Z,14.07
2022-12-08T00:49:51.925Z,13.18
2022-12-08T00:52:18.425Z,15.82
2022-12-08T00:54:44.885Z,15.68
2022-12-08T00:57:11.555Z,15.68
2022-12-08T00:59:37.951Z,15.60
2022-12-08T01:02:04.442Z,16.48
2022-12-08T01:04:30.829Z,14.98
2022-12-08T01:06:57.282Z,14.48
2022-12-08T01:09:23.714Z,16.77
2022-12-08T01:11:50.350Z,15.95
2022-12-08T01:14:16.734Z,14.55
2022-12-08T01:16:43.522Z,19.38
2022-12-08T01:19:12.042Z,13.77
2022-12-08T01:21:39.458Z,18.00
2022-12-08T01:24:06.377Z,15.63
2022-12-08T01:26:32.759Z,18.17
2022-12-08T01:28:59.170Z,19.63
2022-12-08T01:31:25.577Z,17.58
2022-12-08T01:33:52.063Z,17.80
2022-12-08T01:36:27.198Z,16.27
2022-12-08T01:38:54.180Z,17.30
2022-12-08T01:41:26.452Z,15.13
2022-12-08T01:43:56.046Z,13.93
2022-12-08T01:46:23.162Z,14.35
2022-12-08T01:48:51.838Z,14.70
2022-12-08T01:51:18.376Z,15.75
2022-12-08T01:53:44.757Z,14.05
2022-12-08T01:56:16.617Z,13.90
2022-12-08T01:58:46.818Z,13.88
2022-12-08T02:01:13.408Z,17.20
2022-12-08T02:03:50.276Z,16.17
2022-12-08T02:06:17.777Z,12.00
2022-12-08T02:08:44.647Z,13.30
2022-12-08T02:11:12.331Z,13.88
2022-12-08T02:13:39.679Z,13.77
2022-12-08T02:16:26.246Z,12.43
2022-12-08T02:19:29.819Z,12.30
2022-12-08T02:21:56.771Z,12.07
2022-12-08T02:24:38.756Z,13.25
2022-12-08T02:27:23.960Z,12.25
2022-12-08T02:30:02.763Z,12.40
2022-12-08T02:32:29.474Z,10.88
2022-12-08T02:34:58.628Z,10.10
2022-12-08T02:37:40.964Z,11.00
2022-12-08T02:40:22.857Z,9.85
2022-12-08T02:42:55.466Z,10.38
2022-12-08T02:45:25.570Z,9.52
2022-12-08T02:47:52.530Z,10.48
2022-12-08T02:50:19.197Z,10.45
2022-12-08T02:52:46.972Z,10.68
2022-12-08T02:55:30.263Z,10.60
2022-12-08T02:58:03.986Z,9.70
2022-12-08T03:00:38.733Z,10.27
2022-12-08T03:03:19.739Z,10.20
2022-12-08T03:06:01.355Z,8.93
2022-12-08T03:08:51.745Z,11.00
2022-12-08T03:11:38.793Z,9.65
2022-12-08T03:14:06.840Z,11.80
2022-12-08T03:16:37.187Z,9.60
2022-12-08T03:19:09.691Z,12.63
2022-12-08T03:21:37.431Z,13.95
2022-12-08T03:24:07.684Z,11.27
2022-12-08T03:26:38.871Z,11.85
2022-12-08T03:29:05.402Z,10.63
2022-12-08T03:31:34.239Z,14.48
2022-12-08T03:34:01.491Z,13.77
2022-12-08T03:36:28.274Z,13.68
2022-12-08T03:38:54.777Z,13.65
2022-12-08T03:41:22.171Z,13.90
2022-12-08T03:43:52.700Z,14.70
2022-12-08T03:48:47.645Z,11.23
2022-12-08T03:51:14.860Z,15.70
2022-12-08T03:53:41.468Z,12.70
2022-12-08T03:56:23.425Z,13.07
2022-12-08T03:58:49.849Z,13.30
2022-12-08T04:01:16.302Z,12.88
2022-12-08T04:03:42.854Z,12.95
2022-12-08T04:06:09.388Z,14.85
2022-12-08T04:08:35.821Z,14.18
2022-12-08T04:11:02.337Z,12.55
2022-12-08T04:13:28.923Z,12.40
2022-12-08T04:15:55.364Z,14.70
2022-12-08T04:18:22.923Z,14.23
2022-12-08T04:20:49.306Z,11.00
2022-12-08T04:23:15.688Z,12.43
2022-12-08T04:25:42.424Z,13.88
2022-12-08T04:28:08.835Z,11.88
2022-12-08T04:30:35.293Z,15.32
2022-12-08T04:33:01.715Z,13.88
2022-12-08T04:35:28.130Z,12.93
2022-12-08T04:37:54.540Z,14.85
2022-12-08T04:40:20.975Z,18.13
2022-12-08T04:42:47.680Z,14.00
2022-12-08T04:45:14.126Z,13.82
2022-12-08T04:47:40.621Z,12.80
2022-12-08T04:50:08.156Z,14.18
2022-12-08T04:52:34.772Z,11.82
2022-12-08T04:55:01.321Z,11.10
2022-12-08T04:57:27.779Z,9.50
2022-12-08T04:59:54.203Z,9.63
2022-12-08T05:02:20.702Z,10.68
2022-12-08T05:04:47.192Z,9.80
2022-12-08T05:07:13.604Z,8.90
2022-12-08T05:09:40.118Z,8.98
2022-12-08T05:12:06.706Z,8.93
2022-12-08T05:14:33.189Z,10.05
2022-12-08T05:17:01.676Z,9.55
2022-12-08T05:19:31.327Z,9.05
2022-12-08T05:21:57.735Z,9.60
2022-12-08T05:24:24.129Z,9.02
2022-12-08T05:26:50.510Z,8.30
2022-12-08T05:29:16.916Z,9.82
2022-12-08T05:31:43.339Z,8.57
2022-12-08T05:34:09.783Z,8.40
2022-12-08T05:36:36.188Z,8.02
2022-12-08T05:39:02.963Z,9.27
2022-12-08T05:41:29.413Z,9.85
2022-12-08T05:43:55.789Z,9.57
2022-12-08T05:46:22.253Z,9.05
2022-12-08T05:48:48.748Z,9.38
2022-12-08T05:51:18.209Z,10.70
2022-12-08T05:53:44.605Z,10.27
2022-12-08T05:56:12.291Z,9.10
2022-12-08T05:58:38.797Z,12.77
2022-12-08T06:01:05.350Z,14.98
2022-12-08T06:03:31.831Z,12.82
2022-12-08T06:05:58.293Z,17.65
2022-12-08T06:08:24.812Z,24.35
2022-12-08T06:10:51.278Z,26.35
2022-12-08T06:13:17.675Z,23.80
2022-12-08T06:15:44.229Z,22.80
2022-12-08T06:18:10.852Z,21.05
2022-12-08T06:20:37.270Z,17.45
2022-12-08T06:23:03.669Z,16.65
2022-12-08T06:25:30.170Z,15.50
2022-12-08T06:27:56.551Z,13.77
2022-12-08T06:30:22.975Z,11.15
2022-12-08T06:32:49.392Z,11.50
2022-12-08T06:35:15.786Z,12.07
2022-12-08T06:37:42.229Z,10.77
2022-12-08T06:40:09.020Z,10.95
2022-12-08T06:42:44.509Z,9.50
2022-12-08T06:45:12.902Z,12.52
2022-12-08T06:47:39.379Z,13.07
2022-12-08T06:50:07.771Z,11.40
2022-12-08T06:52:37.707Z,10.98
2022-12-08T06:55:08.309Z,10.77
2022-12-08T06:57:35.217Z,12.18
2022-12-08T07:00:01.948Z,12.20
2022-12-08T07:02:28.638Z,12.40
2022-12-08T07:04:55.150Z,11.68
2022-12-08T07:07:21.923Z,11.13
2022-12-08T07:09:48.451Z,13.40
2022-12-08T07:12:14.822Z,14.30
2022-12-08T07:14:41.213Z,13.48
2022-12-08T07:17:07.891Z,12.30
2022-12-08T07:19:34.350Z,12.07
2022-12-08T07:22:00.738Z,12.02
2022-12-08T07:24:27.246Z,12.30
2022-12-08T07:26:53.604Z,12.13
2022-12-08T07:29:24.702Z,12.27
2022-12-08T07:31:52.722Z,10.95
2022-12-08T07:34:19.150Z,11.80
2022-12-08T07:36:45.532Z,12.57
2022-12-08T07:39:11.947Z,11.77
2022-12-08T07:41:38.348Z,12.35
2022-12-08T07:44:04.838Z,12.55
2022-12-08T07:46:31.326Z,11.82
2022-12-08T07:48:57.815Z,13.00
2022-12-08T07:51:25.079Z,12.02
2022-12-08T07:53:54.169Z,11.38
2022-12-08T07:56:21.799Z,12.32
2022-12-08T07:58:48.187Z,12.60
2022-12-08T08:01:27.251Z,12.40
2022-12-08T08:03:55.831Z,12.55
2022-12-08T08:06:22.275Z,13.18
2022-12-08T08:08:48.729Z,14.50
2022-12-08T08:11:20.922Z,13.30
2022-12-08T08:13:48.310Z,14.32
2022-12-08T08:16:14.840Z,13.48
2022-12-08T08:18:50.788Z,11.75
2022-12-08T08:24:06.033Z,13.07
2022-12-08T08:26:32.532Z,13.27
2022-12-08T08:28:58.983Z,12.30
2022-12-08T08:31:26.786Z,15.60
2022-12-08T08:33:53.875Z,14.63
2022-12-08T08:36:21.989Z,14.63
2022-12-08T08:38:48.512Z,12.77
2022-12-08T08:41:14.958Z,14.23
2022-12-08T08:43:41.450Z,15.55
2022-12-08T08:46:11.015Z,13.15
2022-12-08T08:48:37.772Z,15.63
2022-12-08T08:51:09.459Z,13.93
2022-12-08T08:53:36.155Z,13.75
2022-12-08T08:56:05.070Z,12.50
2022-12-08T08:58:31.526Z,14.23
2022-12-08T09:00:57.933Z,19.92
2022-12-08T09:03:24.341Z,15.13
2022-12-08T09:05:51.407Z,14.75
2022-12-08T09:08:18.154Z,15.35
2022-12-08T09:10:44.683Z,16.50
2022-12-08T09:13:11.099Z,14.10
2022-12-08T09:15:37.601Z,15.82
2022-12-08T09:18:06.623Z,17.88
2022-12-08T09:20:34.150Z,15.88
2022-12-08T09:23:00.633Z,14.27
2022-12-08T09:25:28.287Z,14.70
2022-12-08T09:27:54.774Z,14.18
2022-12-08T09:30:21.200Z,14.77
2022-12-08T09:32:47.756Z,13.13
2022-12-08T09:35:14.212Z,13.93
2022-12-08T09:37:40.631Z,13.57
2022-12-08T09:40:08.207Z,12.70
2022-12-08T09:42:53.626Z,12.07
2022-12-08T09:45:21.271Z,12.68
2022-12-08T09:47:48.850Z,12.48
2022-12-08T09:50:34.936Z,14.93
2022-12-08T09:53:16.983Z,15.07
2022-12-08T09:55:50.483Z,17.58
2022-12-08T09:58:27.834Z,15.35
2022-12-08T10:00:54.281Z,13.38
2022-12-08T10:03:22.748Z,10.90
2022-12-08T10:05:56.061Z,10.98
2022-12-08T10:08:30.101Z,10.90
2022-12-08T10:11:00.243Z,11.63
2022-12-08T10:13:33.170Z,11.65
2022-12-08T10:16:02.605Z,12.18
2022-12-08T10:18:31.212Z,11.63
2022-12-08T10:21:05.301Z,12.18
2022-12-08T10:23:35.813Z,9.43
2022-12-08T10:26:03.940Z,9.75
2022-12-08T10:28:31.512Z,9.52
2022-12-08T10:30:57.932Z,10.05
2022-12-08T10:33:24.464Z,9.80
2022-12-08T10:35:53.444Z,9.88
2022-12-08T10:38:26.902Z,9.85
2022-12-08T10:41:07.317Z,9.65
2022-12-08T10:43:34.705Z,10.70
2022-12-08T10:46:12.115Z,10.93
2022-12-08T10:48:47.806Z,9.32
2022-12-08T10:51:30.995Z,12.52
2022-12-08T10:53:57.671Z,9.40
2022-12-08T10:56:29.925Z,10.18
2022-12-08T10:59:07.284Z,10.27
2022-12-08T11:01:37.091Z,11.45
2022-12-08T11:04:05.795Z,8.98
2022-12-08T11:06:35.261Z,8.38
2022-12-08T11:09:05.110Z,10.00
2022-12-08T11:11:50.919Z,9.45
2022-12-08T11:15:00.974Z,9.90
2022-12-08T11:17:29.388Z,10.70
2022-12-08T11:20:02.067Z,9.77
2022-12-08T11:22:43.662Z,11.60
2022-12-08T11:25:13.231Z,9.43
2022-12-08T11:27:48.363Z,9.27
2022-12-08T11:30:21.952Z,9.80
2022-12-08T11:32:57.733Z,10.65
2022-12-08T11:35:30.155Z,10.20
2022-12-08T11:38:08.096Z,10.50
2022-12-08T11:40:45.223Z,10.75
2022-12-08T11:43:19.337Z,10.38
2022-12-08T11:45:47.231Z,10.60
2022-12-08T11:48:16.650Z,13.40
2022-12-08T11:51:04.960Z,13.60
2022-12-08T11:53:49.815Z,10.70
2022-12-08T11:56:22.743Z,12.27
2022-12-08T11:58:56.419Z,10.43
2022-12-08T12:01:25.502Z,9.88
2022-12-08T12:03:59.709Z,9.18
2022-12-08T12:06:53.104Z,9.30
2022-12-08T12:09:54.847Z,10.52
2022-12-08T12:12:51.532Z,10.45
2022-12-08T12:15:44.082Z,9.20
2022-12-08T12:18:17.221Z,8.05
2022-12-08T12:20:49.654Z,9.85
2022-12-08T12:23:42.462Z,9.52
2022-12-08T12:26:20.556Z,9.48
2022-12-08T12:29:16.081Z,8.68
2022-12-08T12:31:43.524Z,8.60
2022-12-08T12:34:33.339Z,10.98
2022-12-08T12:37:10.458Z,9.98
2022-12-08T12:39:51.997Z,8.70
2022-12-08T12:42:44.440Z,8.00
2022-12-08T12:45:16.940Z,7.47
2022-12-08T12:47:56.641Z,10.25
2022-12-08T12:50:41.631Z,8.10
2022-12-08T12:53:17.232Z,9.35
2022-12-08T12:55:57.156Z,14.65
2022-12-08T12:58:29.770Z,17.40
2022-12-08T13:01:08.773Z,17.23
2022-12-08T13:03:35.407Z,16.50
2022-12-08T13:06:01.944Z,11.73
2022-12-08T13:08:28.441Z,10.73
2022-12-08T13:11:09.723Z,15.40
2022-12-08T13:13:55.243Z,9.05
2022-12-08T13:16:25.012Z,17.98
2022-12-08T13:19:02.436Z,15.98
2022-12-08T13:21:35.027Z,29.75
2022-12-08T13:24:10.463Z,14.30
2022-12-08T13:26:44.088Z,34.13
2022-12-08T13:29:26.419Z,13.48
2022-12-08T13:31:57.016Z,12.52
2022-12-08T13:34:31.573Z,12.82
2022-12-08T13:36:57.883Z,10.30
2022-12-08T13:39:28.097Z,8.45
2022-12-08T13:42:02.559Z,9.35
2022-12-08T13:47:34.250Z,9.68
2022-12-08T13:56:59.374Z,22.83
2022-12-08T13:58:46.292Z,9.27
2022-12-08T14:01:22.323Z,9.25
2022-12-08T14:04:28.397Z,10.55
2022-12-08T14:06:43.048Z,11.52
2022-12-08T14:09:22.049Z,11.68
2022-12-08T14:11:55.391Z,12.85
2022-12-08T14:15:01.231Z,10.15
2022-12-08T14:17:22.914Z,17.17
2022-12-08T14:20:22.598Z,13.20
2022-12-08T14:22:50.273Z,13.60
2022-12-08T14:25:17.597Z,13.43
2022-12-08T14:27:44.598Z,10.02
2022-12-08T14:30:14.252Z,10.27
2022-12-08T14:32:55.629Z,14.27
2022-12-08T14:35:26.860Z,12.70
2022-12-08T14:38:15.572Z,11.38
2022-12-08T14:41:02.127Z,12.85
2022-12-08T14:43:30.551Z,14.70
2022-12-08T14:46:02.703Z,12.35
2022-12-08T14:48:36.186Z,14.32
2022-12-08T14:51:03.667Z,16.38
2022-12-08T14:53:41.905Z,12.45
2022-12-08T14:56:15.264Z,14.57
2022-12-08T14:58:41.812Z,12.48
2022-12-08T15:01:10.306Z,15.48
2022-12-08T15:03:36.807Z,13.57
2022-12-08T15:06:05.474Z,12.05
2022-12-08T15:08:32.432Z,10.63
2022-12-08T15:11:24.753Z,12.00
2022-12-08T15:13:53.208Z,10.77
2022-12-08T15:16:42.930Z,12.52
2022-12-08T15:19:40.738Z,11.40
2022-12-08T15:22:21.531Z,12.73
2022-12-08T15:24:47.974Z,10.20
2022-12-08T15:27:25.049Z,10.43
2022-12-08T15:29:52.171Z,10.55
2022-12-08T15:32:22.872Z,9.77
2022-12-08T15:34:49.787Z,12.10
2022-12-08T15:37:26.862Z,9.35
2022-12-08T15:39:53.378Z,9.85
2022-12-08T15:42:19.909Z,11.43
2022-12-08T15:44:46.348Z,11.40
2022-12-08T15:47:20.674Z,11.20
2022-12-08T15:49:49.448Z,11.07
2022-12-08T15:52:18.134Z,11.27
2022-12-08T15:54:44.522Z,12.63
2022-12-08T15:57:43.770Z,13.68
2022-12-08T16:00:30.358Z,12.57
2022-12-08T16:05:55.350Z,10.95
2022-12-08T16:08:46.303Z,11.93
2022-12-08T16:12:04.368Z,11.32
2022-12-08T16:15:38.794Z,10.98
2022-12-08T16:17:13.703Z,10.15
2022-12-08T16:19:40.289Z,11.40
2022-12-08T16:24:53.249Z,12.13
2022-12-08T16:30:17.888Z,14.60
2022-12-08T16:32:44.292Z,15.02
2022-12-08T16:35:12.228Z,14.27
2022-12-08T16:37:38.922Z,15.30
2022-12-08T16:40:06.329Z,16.17
2022-12-08T16:42:40.352Z,18.95
2022-12-08T16:45:07.340Z,50.47
2022-12-08T16:47:34.395Z,24.98
2022-12-08T16:50:00.875Z,30.58
2022-12-08T16:52:27.276Z,17.83
2022-12-08T16:54:53.659Z,23.15
2022-12-08T16:57:20.074Z,14.35
2022-12-08T16:59:46.485Z,17.60
2022-12-08T17:02:16.417Z,16.70
2022-12-08T17:04:43.280Z,17.10
2022-12-08T17:07:09.797Z,19.42
2022-12-08T17:09:36.186Z,18.77
2022-12-08T17:12:04.306Z,16.23
2022-12-08T17:14:33.824Z,15.32
2022-12-08T17:17:00.326Z,14.32
2022-12-08T17:19:26.769Z,15.23
2022-12-08T17:21:53.147Z,18.08
2022-12-08T17:24:22.210Z,16.13
2022-12-08T17:26:48.985Z,17.48
2022-12-08T17:29:15.356Z,14.18
2022-12-08T17:31:41.792Z,16.33
2022-12-08T17:34:11.110Z,14.68
2022-12-08T17:36:37.546Z,15.35
2022-12-08T17:39:04.086Z,15.00
2022-12-08T17:41:31.050Z,14.00
2022-12-08T17:43:57.619Z,17.02
2022-12-08T17:46:24.432Z,14.82
2022-12-08T17:48:50.954Z,14.02
2022-12-08T17:51:17.546Z,12.85
2022-12-08T17:53:44.500Z,13.10
2022-12-08T17:56:17.338Z,13.70
2022-12-08T17:58:43.834Z,12.93
2022-12-08T18:01:10.989Z,14.63
2022-12-08T18:03:38.103Z,15.52
2022-12-08T18:06:06.684Z,14.07
2022-12-08T18:08:33.145Z,13.30
2022-12-08T18:10:59.668Z,18.25
2022-12-08T18:13:26.397Z,18.90
2022-12-08T18:15:52.818Z,15.48
2022-12-08T18:18:19.863Z,16.50
2022-12-08T18:20:46.599Z,15.38
2022-12-08T18:23:13.755Z,15.38
2022-12-08T18:25:40.224Z,15.77
2022-12-08T18:28:06.654Z,16.58
2022-12-08T18:30:33.102Z,17.92
2022-12-08T18:32:59.644Z,17.00
2022-12-08T18:35:26.925Z,14.73
2022-12-08T18:37:53.295Z,16.58
2022-12-08T18:40:19.777Z,14.10
2022-12-08T18:42:46.236Z,13.63
2022-12-08T18:45:14.068Z,16.33
2022-12-08T18:47:42.143Z,16.00
2022-12-08T18:50:09.553Z,16.20
2022-12-08T18:52:35.967Z,16.25
2022-12-08T18:55:06.986Z,18.38
2022-12-08T18:57:34.834Z,20.27
2022-12-08T19:00:02.586Z,17.48
2022-12-08T19:02:29.323Z,15.25
2022-12-08T19:04:55.987Z,15.30
2022-12-08T19:07:22.519Z,15.07
2022-12-08T19:09:48.923Z,16.75
2022-12-08T19:12:15.322Z,15.98
2022-12-08T19:14:41.909Z,16.20
2022-12-08T19:17:08.421Z,16.60
2022-12-08T19:19:35.481Z,16.25
2022-12-08T19:22:02.228Z,19.25
2022-12-08T19:24:28.892Z,16.75
2022-12-08T19:26:55.269Z,16.10
2022-12-08T19:29:21.778Z,16.15
2022-12-08T19:31:48.263Z,16.58
2022-12-08T19:34:15.258Z,20.70
2022-12-08T19:36:43.026Z,18.48
2022-12-08T19:39:54.717Z,27.10
2022-12-08T19:42:39.850Z,22.13
2022-12-08T19:45:14.535Z,16.90
2022-12-08T19:47:41.317Z,17.42
2022-12-08T19:50:28.139Z,17.60
2022-12-08T19:52:54.784Z,16.30
2022-12-08T19:55:23.447Z,16.67
2022-12-08T19:57:50.992Z,19.17
2022-12-08T20:00:18.303Z,16.95
2022-12-08T20:02:45.445Z,15.68
2022-12-08T20:05:12.439Z,16.15
2022-12-08T20:07:39.084Z,16.95
2022-12-08T20:10:09.222Z,15.55
2022-12-08T20:12:35.708Z,17.23
2022-12-08T20:15:02.427Z,19.35
2022-12-08T20:17:28.822Z,18.88
2022-12-08T20:19:55.225Z,18.63
2022-12-08T20:22:21.654Z,17.33
2022-12-08T20:24:56.461Z,18.10
2022-12-08T20:27:26.128Z,18.70
2022-12-08T20:29:52.610Z,14.77
2022-12-08T20:32:19.074Z,15.18
2022-12-08T20:34:45.472Z,17.02
2022-12-08T20:37:11.923Z,16.67
2022-12-08T20:39:38.352Z,16.77
2022-12-08T20:42:04.887Z,15.23
2022-12-08T20:44:31.353Z,17.73
2022-12-08T20:46:57.787Z,17.85
2022-12-08T20:49:27.254Z,19.35
2022-12-08T20:51:56.425Z,16.30
2022-12-08T20:54:22.884Z,15.90
2022-12-08T20:56:49.388Z,15.43
2022-12-08T20:59:17.138Z,15.05
2022-12-08T21:01:43.835Z,13.88
2022-12-08T21:04:14.496Z,14.38
2022-12-08T21:06:41.230Z,13.50
2022-12-08T21:09:08.662Z,11.98
2022-12-08T21:11:35.895Z,12.27
2022-12-08T21:14:02.481Z,14.63
2022-12-08T21:16:29.295Z,12.55
2022-12-08T21:18:56.206Z,13.90
2022-12-08T21:21:22.713Z,13.93
2022-12-08T21:23:49.237Z,13.05
2022-12-08T21:26:17.860Z,20.02
2022-12-08T21:28:44.757Z,19.55
2022-12-08T21:31:13.922Z,25.30
2022-12-08T21:33:40.600Z,25.23
2022-12-08T21:36:11.081Z,18.60
2022-12-08T21:38:38.858Z,17.90
2022-12-08T21:41:36.897Z,15.23
2022-12-08T21:44:04.795Z,15.70
2022-12-08T21:46:31.553Z,16.48
2022-12-08T21:48:58.352Z,14.95
2022-12-08T21:51:24.951Z,13.40
2022-12-08T21:53:51.683Z,13.45
2022-12-08T21:56:18.145Z,13.63
2022-12-08T21:58:44.645Z,14.30
2022-12-08T22:01:11.970Z,16.08
2022-12-08T22:03:39.701Z,16.38
2022-12-08T22:06:07.468Z,15.85
2022-12-08T22:08:34.291Z,15.90
2022-12-08T22:11:00.857Z,17.45
2022-12-08T22:13:27.716Z,16.23
2022-12-08T22:15:58.381Z,18.75
2022-12-08T22:18:25.425Z,15.90
2022-12-08T22:20:52.357Z,16.58
2022-12-08T22:23:19.488Z,16.95
2022-12-08T22:25:46.040Z,15.30
2022-12-08T22:28:12.586Z,15.20
2022-12-08T22:30:39.505Z,16.65
2022-12-08T22:33:06.249Z,16.95
2022-12-08T22:35:32.692Z,14.35
2022-12-08T22:37:59.096Z,15.88
2022-12-08T22:40:25.509Z,18.52
2022-12-08T22:42:51.874Z,16.00
2022-12-08T22:45:18.351Z,17.23
2022-12-08T22:47:44.911Z,16.40
2022-12-08T22:50:11.598Z,14.73
2022-12-08T22:52:38.221Z,14.63
2022-12-08T22:55:05.077Z,14.27
2022-12-08T22:57:31.555Z,16.67
2022-12-08T22:59:58.098Z,16.67
2022-12-08T23:02:24.521Z,15.27
2022-12-08T23:04:51.184Z,15.37
2022-12-08T23:07:17.806Z,16.97
2022-12-08T23:09:44.435Z,15.27
2022-12-08T23:12:11.120Z,16.30
2022-12-08T23:14:37.512Z,18.63
2022-12-08T23:17:04.036Z,14.73
2022-12-08T23:19:30.687Z,16.57
2022-12-08T23:21:57.431Z,16.13
2022-12-08T23:24:24.086Z,16.60
2022-12-08T23:26:50.534Z,17.05
2022-12-08T23:29:16.955Z,14.43
2022-12-08T23:31:43.566Z,15.53
2022-12-08T23:34:10.751Z,16.80
2022-12-08T23:36:37.195Z,18.33
2022-12-08T23:39:04.665Z,17.47
2022-12-08T23:41:31.039Z,16.03
2022-12-08T23:43:58.184Z,14.70
2022-12-08T23:46:24.793Z,14.60
2022-12-08T23:48:51.511Z,14.45
2022-12-08T23:51:18.444Z,13.97
2022-12-08T23:53:45.061Z,17.20
2022-12-08T23:56:13.650Z,17.35
2022-12-08T23:58:40.659Z,17.90
